Time;durP1;ratioP1;P1;durP2;ratioP2;P2;SDS_P1;SDS_P2;PMS_P1;PMS_P2;Temp;Humidity;BMP_temperature;BMP_pressure;BME280_temperature;BME280_humidity;BME280_pressure;Samples;Min_cycle;Max_cycle;Signal;HPM_P1;HPM_P2
2023/07/03 00:00:20;;;;;;;4.30;2.83;;;19.00;99.90;;;;;;5074361;28;20183;-69
2023/07/03 00:02:52;;;;;;;8.00;3.50;;;19.70;99.90;;;;;;5075657;28;20183;-80
2023/07/03 00:05:21;;;;;;;7.07;2.80;;;19.50;99.90;;;;;;5075528;28;20194;-69
2023/07/03 00:07:49;;;;;;;6.63;2.97;;;19.90;99.90;;;;;;5075611;28;20172;-79
2023/07/03 00:10:17;;;;;;;4.93;2.20;;;20.00;99.90;;;;;;5074488;28;20271;-71
2023/07/03 00:12:45;;;;;;;9.67;2.80;;;20.40;99.90;;;;;;5075395;28;20262;-78
2023/07/03 00:15:14;;;;;;;7.33;2.80;;;20.60;99.90;;;;;;5075055;28;20183;-71
2023/07/03 00:17:44;;;;;;;6.77;3.30;;;20.70;99.90;;;;;;5074115;28;20227;-79
2023/07/03 00:20:13;;;;;;;5.17;3.00;;;21.30;99.90;;;;;;5075229;28;20276;-70
2023/07/03 00:22:43;;;;;;;5.17;2.73;;;21.00;99.90;;;;;;5075416;28;20537;-69
2023/07/03 00:28:33;;;;;;;8.33;2.77;;;21.30;99.90;;;;;;5074272;28;20242;-70
2023/07/03 00:31:01;;;;;;;7.63;3.00;;;21.00;99.90;;;;;;5075281;28;20651;-71
2023/07/03 00:33:28;;;;;;;9.90;3.53;;;20.80;99.90;;;;;;5075079;28;20179;-73
2023/07/03 00:35:56;;;;;;;11.97;3.43;;;20.40;99.90;;;;;;5075149;28;20207;-80
2023/07/03 00:38:24;;;;;;;8.73;3.77;;;19.90;99.90;;;;;;5074724;28;20312;-71
2023/07/03 00:40:51;;;;;;;13.30;3.97;;;20.10;99.90;;;;;;5075060;28;20254;-77
2023/07/03 00:43:19;;;;;;;13.57;3.77;;;20.40;99.90;;;;;;5075082;28;20536;-77
2023/07/03 00:45:47;;;;;;;6.00;2.70;;;20.40;99.90;;;;;;5074639;28;20577;-71
2023/07/03 00:48:15;;;;;;;5.93;3.60;;;20.20;99.90;;;;;;5075446;28;20183;-72
2023/07/03 00:50:43;;;;;;;13.33;3.33;;;19.80;99.90;;;;;;5074949;28;20203;-70
2023/07/03 00:53:11;;;;;;;6.03;2.90;;;19.90;99.90;;;;;;5075538;28;20178;-78
2023/07/03 00:55:39;;;;;;;5.73;2.50;;;20.40;99.90;;;;;;5074565;28;20194;-70
2023/07/03 00:58:06;;;;;;;10.63;2.93;;;20.60;99.90;;;;;;5072758;28;20593;-72
2023/07/03 01:00:42;;;;;;;6.87;2.33;;;20.50;99.90;;;;;;5074675;28;20267;-81
2023/07/03 01:03:23;;;;;;;6.70;2.13;;;20.50;99.90;;;;;;5054376;28;20190;-73
2023/07/03 01:05:52;;;;;;;7.37;2.37;;;20.60;99.90;;;;;;5068520;28;20180;-76
2023/07/03 01:08:20;;;;;;;5.20;2.03;;;20.50;99.90;;;;;;5074094;28;20171;-70
2023/07/03 01:10:48;;;;;;;9.10;2.10;;;20.60;99.90;;;;;;5074176;28;20180;-70
2023/07/03 01:13:18;;;;;;;7.13;1.70;;;20.80;99.90;;;;;;5074433;28;20168;-70
2023/07/03 01:15:47;;;;;;;3.40;1.73;;;20.80;99.90;;;;;;5074365;28;20638;-70
2023/07/03 01:18:15;;;;;;;5.83;1.80;;;20.80;99.90;;;;;;5074258;28;20211;-69
2023/07/03 01:21:18;;;;;;;6.03;1.97;;;20.80;99.90;;;;;;5073967;28;20293;-70
2023/07/03 01:24:13;;;;;;;13.27;3.30;;;20.60;99.90;;;;;;5072890;28;20180;-70
2023/07/03 01:26:44;;;;;;;5.53;2.37;;;20.60;99.90;;;;;;5072811;28;20195;-69
2023/07/03 01:29:13;;;;;;;4.57;2.60;;;20.70;99.90;;;;;;5074207;28;20224;-71
2023/07/03 01:31:42;;;;;;;9.00;2.30;;;20.90;99.90;;;;;;5074139;28;20539;-70
2023/07/03 01:34:11;;;;;;;10.80;2.60;;;21.00;99.90;;;;;;5073908;28;20174;-70
2023/07/03 01:36:40;;;;;;;8.03;3.30;;;20.70;99.90;;;;;;5073934;28;20543;-71
2023/07/03 01:39:08;;;;;;;11.20;2.50;;;20.50;99.90;;;;;;5074020;28;20168;-70
2023/07/03 01:41:37;;;;;;;11.77;2.73;;;20.50;99.90;;;;;;5073987;28;20172;-70
2023/07/03 01:44:05;;;;;;;8.80;3.00;;;20.50;99.90;;;;;;5073986;28;20619;-69
2023/07/03 01:46:33;;;;;;;10.50;3.07;;;20.50;99.90;;;;;;5073773;28;20182;-71
2023/07/03 01:49:01;;;;;;;10.63;2.93;;;20.50;99.90;;;;;;5073609;28;20174;-70
2023/07/03 01:51:44;;;;;;;9.47;3.03;;;20.80;99.90;;;;;;5073573;28;20182;-71
2023/07/03 01:54:17;;;;;;;9.73;2.63;;;21.30;99.90;;;;;;5073808;28;20179;-70
2023/07/03 01:56:49;;;;;;;11.60;3.20;;;21.00;99.90;;;;;;5073491;28;20205;-72
2023/07/03 01:59:21;;;;;;;15.07;3.77;;;21.50;99.90;;;;;;5073577;28;20224;-71
2023/07/03 02:02:00;;;;;;;9.07;2.80;;;22.70;99.90;;;;;;5073617;28;20208;-70
2023/07/03 02:04:42;;;;;;;6.30;3.03;;;23.30;99.90;;;;;;5073510;28;20203;-70
2023/07/03 02:07:12;;;;;;;8.40;2.90;;;24.10;99.90;;;;;;5073630;28;20168;-70
2023/07/03 02:09:41;;;;;;;6.63;2.67;;;24.50;99.90;;;;;;5073638;28;20176;-70
2023/07/03 02:12:11;;;;;;;11.30;2.83;;;24.60;99.90;;;;;;5073408;28;20182;-70
2023/07/03 02:14:39;;;;;;;10.07;2.70;;;24.10;99.90;;;;;;5071917;28;20518;-69
2023/07/03 02:17:07;;;;;;;3.17;1.70;;;24.60;99.90;;;;;;5072429;28;20207;-69
2023/07/03 02:19:35;;;;;;;5.57;2.60;;;24.60;99.90;;;;;;5073140;28;20212;-70
2023/07/03 02:22:04;;;;;;;6.97;1.83;;;24.40;99.90;;;;;;5072944;28;20245;-72
2023/07/03 02:24:31;;;;;;;10.07;2.57;;;24.60;99.90;;;;;;5072992;28;20234;-70
2023/07/03 02:26:59;;;;;;;6.77;2.30;;;24.50;99.90;;;;;;5073024;28;20172;-71
2023/07/03 02:29:27;;;;;;;5.03;2.07;;;23.80;99.90;;;;;;5073243;28;20183;-69
2023/07/03 02:31:55;;;;;;;6.20;2.20;;;23.50;99.90;;;;;;5072920;28;20203;-70
2023/07/03 02:34:22;;;;;;;5.20;2.30;;;23.50;99.90;;;;;;5072940;28;20216;-71
2023/07/03 02:36:50;;;;;;;10.37;2.00;;;23.50;99.90;;;;;;5073011;28;20699;-69
2023/07/03 02:39:18;;;;;;;6.03;1.70;;;23.70;99.90;;;;;;5073119;28;20250;-69
2023/07/03 02:41:46;;;;;;;5.03;1.37;;;23.40;99.90;;;;;;5073011;28;20168;-69
2023/07/03 02:44:13;;;;;;;5.90;1.97;;;23.40;99.90;;;;;;5072936;28;20187;-69
2023/07/03 02:46:42;;;;;;;5.13;1.70;;;23.50;99.90;;;;;;5072621;28;20168;-69
2023/07/03 02:49:09;;;;;;;5.40;1.63;;;23.60;99.90;;;;;;5072797;28;20184;-70
2023/07/03 02:51:37;;;;;;;4.57;1.80;;;23.60;99.90;;;;;;5072920;28;20171;-72
2023/07/03 02:54:06;;;;;;;9.07;2.10;;;23.60;99.90;;;;;;5072759;28;20645;-71
2023/07/03 02:56:33;;;;;;;7.63;2.13;;;23.80;99.90;;;;;;5072737;28;20192;-70
2023/07/03 02:59:01;;;;;;;7.63;2.03;;;24.20;99.90;;;;;;5072979;28;20179;-73
2023/07/03 03:01:29;;;;;;;5.93;2.03;;;24.20;99.90;;;;;;5072733;28;20184;-71
2023/07/03 03:03:58;;;;;;;4.83;2.53;;;23.70;99.90;;;;;;5072793;28;20205;-70
2023/07/03 03:06:26;;;;;;;7.10;2.60;;;23.60;99.90;;;;;;5071473;28;20547;-70
2023/07/03 03:08:54;;;;;;;4.50;1.97;;;24.20;99.90;;;;;;5072751;28;20599;-70
2023/07/03 03:11:21;;;;;;;4.13;1.50;;;23.80;99.90;;;;;;5072602;28;20211;-71
2023/07/03 03:13:49;;;;;;;8.93;2.20;;;23.80;99.90;;;;;;5072802;28;20186;-70
2023/07/03 03:16:17;;;;;;;11.20;2.87;;;23.90;99.90;;;;;;5072542;28;20218;-70
2023/07/03 03:18:47;;;;;;;6.47;2.10;;;23.70;99.90;;;;;;5072343;28;20188;-69
2023/07/03 03:21:15;;;;;;;12.33;2.77;;;23.70;99.90;;;;;;5072732;28;20229;-71
2023/07/03 03:23:43;;;;;;;6.53;2.57;;;24.20;99.90;;;;;;5071328;28;20179;-68
2023/07/03 03:26:10;;;;;;;9.83;2.10;;;24.30;99.90;;;;;;5072356;28;20172;-68
2023/07/03 03:28:38;;;;;;;4.57;2.23;;;24.30;99.90;;;;;;5073226;28;20164;-69
2023/07/03 03:31:06;;;;;;;8.20;2.57;;;24.10;99.90;;;;;;5076268;28;20180;-70
2023/07/03 03:36:44;;;;;;;5.07;2.27;;;23.20;99.90;;;;;;5021092;28;20263;-70
2023/07/03 03:39:12;;;;;;;12.30;2.23;;;22.80;99.90;;;;;;5073603;28;20195;-73
2023/07/03 03:41:40;;;;;;;5.73;2.30;;;22.80;99.90;;;;;;5075699;28;20622;-71
2023/07/03 03:44:08;;;;;;;5.20;1.97;;;22.80;99.90;;;;;;5075399;28;20271;-71
2023/07/03 03:46:36;;;;;;;11.67;2.57;;;23.40;99.90;;;;;;5075201;28;20555;-72
2023/07/03 03:49:03;;;;;;;8.37;2.10;;;23.80;99.90;;;;;;5076036;28;20197;-69
2023/07/03 03:51:31;;;;;;;6.73;2.03;;;23.00;99.90;;;;;;5075759;28;20237;-69
2023/07/03 03:53:59;;;;;;;5.93;2.03;;;22.60;99.90;;;;;;5075785;28;20184;-69
2023/07/03 03:56:27;;;;;;;9.83;1.97;;;22.30;99.90;;;;;;5075691;28;20532;-74
2023/07/03 03:58:54;;;;;;;4.57;1.87;;;22.40;99.90;;;;;;5077994;28;20220;-70
2023/07/03 04:01:22;;;;;;;6.20;1.87;;;22.60;99.90;;;;;;5075721;28;20259;-70
2023/07/03 04:03:50;;;;;;;6.43;1.80;;;22.90;99.90;;;;;;5075528;28;20187;-75
2023/07/03 04:06:17;;;;;;;8.73;1.77;;;23.00;99.90;;;;;;5075144;28;20325;-70
2023/07/03 04:08:46;;;;;;;3.30;1.67;;;22.40;99.90;;;;;;5075585;28;20168;-71
2023/07/03 04:11:14;;;;;;;6.13;2.10;;;21.80;99.90;;;;;;5075532;28;20229;-70
2023/07/03 04:13:42;;;;;;;6.30;2.07;;;21.40;99.90;;;;;;5075298;28;20255;-70
2023/07/03 04:16:11;;;;;;;8.10;2.07;;;21.00;99.90;;;;;;5074021;28;20183;-70
2023/07/03 04:18:40;;;;;;;4.93;2.13;;;20.50;99.90;;;;;;5074959;28;20206;-71
2023/07/03 04:21:08;;;;;;;7.13;2.07;;;20.40;99.90;;;;;;5075475;28;20198;-70
2023/07/03 04:23:35;;;;;;;5.13;1.50;;;20.40;99.90;;;;;;5073872;28;20179;-72
2023/07/03 04:26:03;;;;;;;9.10;1.93;;;20.40;99.90;;;;;;5074452;28;20180;-70
2023/07/03 04:28:31;;;;;;;6.03;1.67;;;20.50;99.90;;;;;;5075284;28;20183;-74
2023/07/03 04:30:59;;;;;;;4.80;1.93;;;20.10;99.90;;;;;;5075187;28;20172;-70
2023/07/03 04:33:26;;;;;;;6.67;2.37;;;20.10;99.90;;;;;;5074848;28;20176;-70
2023/07/03 04:35:54;;;;;;;5.00;2.43;;;20.20;99.90;;;;;;5073683;28;20190;-70
2023/07/03 04:38:23;;;;;;;6.90;1.87;;;20.00;99.90;;;;;;5074995;28;20302;-69
2023/07/03 04:40:53;;;;;;;6.00;2.30;;;19.80;99.90;;;;;;5074050;28;20182;-74
2023/07/03 04:43:21;;;;;;;5.00;2.53;;;19.80;99.90;;;;;;5074640;28;20179;-70
2023/07/03 04:45:51;;;;;;;8.10;2.33;;;19.80;99.90;;;;;;5074845;28;20275;-70
2023/07/03 04:48:20;;;;;;;9.13;3.00;;;19.80;99.90;;;;;;5074495;28;20188;-70
2023/07/03 04:50:49;;;;;;;4.73;2.17;;;19.60;99.90;;;;;;5073331;28;20176;-74
2023/07/03 04:53:20;;;;;;;7.37;2.00;;;19.50;99.90;;;;;;5073879;28;20266;-72
2023/07/03 04:55:49;;;;;;;6.13;1.90;;;19.50;99.90;;;;;;5074316;28;20615;-74
2023/07/03 04:58:16;;;;;;;10.37;2.57;;;19.50;99.90;;;;;;5074420;28;20208;-69
2023/07/03 05:00:46;;;;;;;8.57;2.17;;;19.70;99.90;;;;;;5073984;28;20183;-73
2023/07/03 05:03:14;;;;;;;6.90;2.30;;;19.70;99.90;;;;;;5074247;28;20172;-73
2023/07/03 05:05:42;;;;;;;7.50;2.40;;;20.00;99.90;;;;;;5074025;28;20185;-71
2023/07/03 05:08:10;;;;;;;11.87;2.50;;;20.00;99.90;;;;;;5074468;28;20176;-71
2023/07/03 05:10:37;;;;;;;9.27;3.10;;;20.20;99.90;;;;;;5074185;28;20660;-70
2023/07/03 05:13:05;;;;;;;8.80;2.37;;;20.20;99.90;;;;;;5074378;28;20176;-69
2023/07/03 05:18:55;;;;;;;6.83;2.47;;;20.10;99.90;;;;;;5073681;28;20275;-69
2023/07/03 05:21:22;;;;;;;10.57;2.93;;;19.90;99.90;;;;;;5072847;28;20194;-70
2023/07/03 05:23:50;;;;;;;7.20;2.40;;;19.70;99.90;;;;;;5075203;28;20197;-74
2023/07/03 05:26:18;;;;;;;7.30;2.47;;;19.60;99.90;;;;;;5074776;28;20184;-70
2023/07/03 05:28:45;;;;;;;7.20;2.30;;;19.50;99.90;;;;;;5074299;28;20624;-70
2023/07/03 05:31:13;;;;;;;5.40;2.03;;;19.50;99.90;;;;;;5074521;28;20272;-70
2023/07/03 05:33:41;;;;;;;11.83;3.17;;;19.40;99.90;;;;;;5072488;28;20179;-73
2023/07/03 05:36:09;;;;;;;8.60;2.70;;;19.50;99.90;;;;;;5073767;28;20205;-69
2023/07/03 05:38:36;;;;;;;8.60;2.73;;;19.60;99.90;;;;;;5072942;28;20268;-74
2023/07/03 05:41:04;;;;;;;8.57;2.90;;;19.60;99.90;;;;;;5073983;28;20236;-69
2023/07/03 05:43:32;;;;;;;11.87;2.80;;;19.60;99.90;;;;;;5073116;28;20197;-69
2023/07/03 05:46:00;;;;;;;5.77;2.83;;;19.50;99.90;;;;;;5073614;28;20180;-71
2023/07/03 05:48:27;;;;;;;7.23;2.63;;;19.40;99.90;;;;;;5073691;28;20181;-71
2023/07/03 05:50:55;;;;;;;6.40;2.67;;;19.30;99.90;;;;;;5073221;28;20554;-73
2023/07/03 05:53:23;;;;;;;6.33;2.13;;;19.20;99.90;;;;;;5073195;28;20200;-72
2023/07/03 05:55:58;;;;;;;8.00;2.77;;;19.10;99.90;;;;;;5073437;28;20191;-70
2023/07/03 05:58:27;;;;;;;10.97;2.50;;;19.10;99.90;;;;;;5072884;28;20211;-69
2023/07/03 06:00:56;;;;;;;5.80;2.30;;;19.00;99.90;;;;;;5073494;28;20661;-71
2023/07/03 06:03:24;;;;;;;11.93;3.00;;;18.90;99.90;;;;;;5072179;28;20658;-69
2023/07/03 06:05:52;;;;;;;8.23;2.13;;;18.80;99.90;;;;;;5073389;28;20182;-74
2023/07/03 06:08:20;;;;;;;6.93;2.27;;;18.70;99.90;;;;;;5073225;28;20182;-72
2023/07/03 06:10:48;;;;;;;8.53;2.43;;;18.60;99.90;;;;;;5072203;28;20606;-71
2023/07/03 06:13:16;;;;;;;8.83;1.97;;;18.50;99.90;;;;;;5073144;28;20179;-75
2023/07/03 06:15:44;;;;;;;8.83;2.40;;;18.50;99.90;;;;;;5073210;28;20182;-71
2023/07/03 06:18:11;;;;;;;9.37;2.60;;;18.40;99.90;;;;;;5073070;28;20216;-72
2023/07/03 06:20:39;;;;;;;6.63;2.77;;;18.30;99.90;;;;;;5073221;28;20239;-73
2023/07/03 06:23:07;;;;;;;11.63;3.30;;;18.20;99.90;;;;;;5073055;28;20182;-74
2023/07/03 06:25:35;;;;;;;9.63;3.27;;;18.00;99.90;;;;;;5071845;28;20279;-72
2023/07/03 06:28:03;;;;;;;9.67;2.90;;;17.90;99.90;;;;;;5073145;28;20180;-70
2023/07/03 06:30:30;;;;;;;13.03;3.07;;;17.80;99.90;;;;;;5073285;28;20190;-69
2023/07/03 06:32:58;;;;;;;10.50;3.30;;;17.60;99.90;;;;;;5072422;28;20168;-69
2023/07/03 06:35:26;;;;;;;7.50;2.80;;;17.60;99.90;;;;;;5071740;28;20233;-70
2023/07/03 06:37:58;;;;;;;8.90;2.97;;;17.50;99.90;;;;;;5071947;28;20296;-71
2023/07/03 06:40:26;;;;;;;9.03;3.20;;;17.40;99.90;;;;;;5072475;28;20172;-73
2023/07/03 06:42:53;;;;;;;10.97;3.13;;;17.20;99.90;;;;;;5070754;28;20286;-73
2023/07/03 06:45:21;;;;;;;13.13;3.70;;;17.20;99.90;;;;;;5072581;28;20183;-70
2023/07/03 06:47:49;;;;;;;6.97;2.90;;;17.10;99.90;;;;;;5072134;28;20206;-71
2023/07/03 06:50:17;;;;;;;9.00;3.10;;;17.00;99.90;;;;;;5072688;28;20176;-69
2023/07/03 06:52:48;;;;;;;13.27;3.33;;;17.00;99.90;;;;;;5073259;28;20648;-70
2023/07/03 06:55:15;;;;;;;12.27;3.43;;;16.90;99.90;;;;;;5072367;28;20685;-69
2023/07/03 06:57:43;;;;;;;10.73;3.43;;;16.90;99.90;;;;;;5072668;28;20274;-72
2023/07/03 07:00:11;;;;;;;7.30;3.10;;;16.90;99.90;;;;;;5072843;28;20175;-73
2023/07/03 07:02:39;;;;;;;11.37;3.47;;;16.80;99.90;;;;;;5072723;28;20172;-72
2023/07/03 07:05:07;;;;;;;12.03;3.40;;;16.80;99.90;;;;;;5076222;28;20195;-70
2023/07/03 07:07:35;;;;;;;11.17;4.20;;;16.80;99.90;;;;;;5077010;28;20187;-73
2023/07/03 07:10:03;;;;;;;12.00;3.10;;;16.80;99.90;;;;;;5076966;28;20186;-70
2023/07/03 07:12:31;;;;;;;11.60;3.30;;;16.80;99.90;;;;;;5076659;28;20314;-72
2023/07/03 07:14:59;;;;;;;10.57;3.80;;;16.90;99.90;;;;;;5076818;28;20204;-69
2023/07/03 07:17:27;;;;;;;13.47;3.13;;;16.80;99.90;;;;;;5077261;28;20204;-70
2023/07/03 07:19:55;;;;;;;16.10;3.97;;;16.80;99.90;;;;;;5076386;28;20681;-70
2023/07/03 07:22:22;;;;;;;9.03;3.07;;;16.80;99.90;;;;;;5076655;28;20303;-70
2023/07/03 07:24:50;;;;;;;10.10;2.93;;;16.80;99.90;;;;;;5076470;28;20573;-70
2023/07/03 07:27:17;;;;;;;8.80;3.10;;;16.90;99.90;;;;;;5076683;28;20230;-70
2023/07/03 07:29:44;;;;;;;10.13;2.57;;;16.80;99.90;;;;;;5076589;28;20172;-71
2023/07/03 07:32:12;;;;;;;11.57;3.33;;;16.70;99.90;;;;;;5076353;28;20626;-69
2023/07/03 07:34:39;;;;;;;11.37;3.43;;;16.70;99.90;;;;;;5076305;28;20172;-71
2023/07/03 07:37:06;;;;;;;9.40;3.73;;;16.70;99.90;;;;;;5074937;28;20246;-71
2023/07/03 07:39:34;;;;;;;15.87;3.67;;;16.70;99.90;;;;;;5076208;28;20175;-69
2023/07/03 07:42:01;;;;;;;16.87;3.30;;;16.70;99.90;;;;;;5076366;28;20657;-69
2023/07/03 07:44:28;;;;;;;10.37;3.77;;;16.60;99.90;;;;;;5075936;28;20194;-71
2023/07/03 07:46:55;;;;;;;9.57;3.30;;;16.50;99.90;;;;;;5076132;28;20179;-69
2023/07/03 07:49:23;;;;;;;7.47;3.10;;;16.50;99.90;;;;;;5076044;28;20172;-70
2023/07/03 07:51:50;;;;;;;9.87;4.27;;;16.50;99.90;;;;;;5076081;28;20183;-70
2023/07/03 07:54:18;;;;;;;12.60;3.30;;;16.50;99.90;;;;;;5076091;28;20255;-69
2023/07/03 07:56:45;;;;;;;8.80;3.10;;;16.50;99.90;;;;;;5074506;28;20177;-69
2023/07/03 07:59:14;;;;;;;10.63;4.17;;;16.40;99.90;;;;;;5075777;28;20317;-73
2023/07/03 08:01:41;;;;;;;12.63;4.00;;;16.50;99.90;;;;;;5076066;28;20531;-70
2023/07/03 08:04:08;;;;;;;14.90;3.67;;;16.50;99.90;;;;;;5075805;28;20637;-73
2023/07/03 08:06:36;;;;;;;8.27;3.37;;;16.50;99.90;;;;;;5074212;28;20180;-70
2023/07/03 08:09:04;;;;;;;13.60;3.80;;;16.50;99.90;;;;;;5074928;28;20196;-73
2023/07/03 08:11:31;;;;;;;13.13;3.63;;;16.50;99.90;;;;;;5075306;28;20178;-70
2023/07/03 08:13:58;;;;;;;12.20;3.63;;;16.60;99.90;;;;;;5075202;28;20617;-73
2023/07/03 08:16:25;;;;;;;12.13;4.10;;;16.60;99.90;;;;;;5073789;28;20179;-72
2023/07/03 08:18:53;;;;;;;13.97;4.17;;;16.50;99.90;;;;;;5074874;28;21062;-75
2023/07/03 08:21:20;;;;;;;17.30;4.87;;;16.50;99.90;;;;;;5075213;28;20164;-73
2023/07/03 08:23:48;;;;;;;21.80;4.33;;;16.50;99.90;;;;;;5074991;28;20184;-70
2023/07/03 08:26:23;;;;;;;15.70;4.03;;;16.50;99.90;;;;;;5075015;28;20172;-74
2023/07/03 08:28:51;;;;;;;11.97;3.73;;;16.50;99.90;;;;;;5074857;28;20175;-70
2023/07/03 08:31:18;;;;;;;10.20;3.43;;;16.40;99.90;;;;;;5075343;28;20605;-70
2023/07/03 08:33:45;;;;;;;10.53;3.20;;;16.40;99.90;;;;;;5074888;28;20266;-71
2023/07/03 08:36:13;;;;;;;12.13;3.60;;;16.40;99.90;;;;;;5074848;28;20176;-73
2023/07/03 08:38:40;;;;;;;13.23;4.07;;;16.30;99.90;;;;;;5074013;28;20241;-71
2023/07/03 08:41:14;;;;;;;12.47;3.97;;;16.30;99.90;;;;;;5074243;28;20168;-72
2023/07/03 08:43:44;;;;;;;10.53;3.77;;;16.20;99.90;;;;;;5061064;28;20180;-75
2023/07/03 08:46:21;;;;;;;13.37;3.83;;;16.20;99.90;;;;;;5067555;28;20172;-71
2023/07/03 08:48:52;;;;;;;8.77;3.33;;;16.10;99.90;;;;;;5073490;28;20828;-71
2023/07/03 08:51:22;;;;;;;12.13;3.67;;;16.10;99.90;;;;;;5072494;28;20558;-70
2023/07/03 08:53:56;;;;;;;14.10;3.80;;;16.20;99.90;;;;;;5072010;28;20188;-70
2023/07/03 08:56:29;;;;;;;11.60;3.93;;;16.20;99.90;;;;;;5072828;28;20183;-71
2023/07/03 08:58:57;;;;;;;11.20;4.10;;;16.10;99.90;;;;;;5072471;28;20332;-73
2023/07/03 09:01:53;;;;;;;8.63;3.60;;;16.10;99.90;;;;;;5071463;28;20229;-70
2023/07/03 09:05:01;;;;;;;12.33;4.10;;;16.00;99.90;;;;;;5071852;28;20187;-69
2023/07/03 09:07:40;;;;;;;12.50;3.70;;;16.00;99.90;;;;;;5069779;28;20191;-69
2023/07/03 09:10:33;;;;;;;10.03;3.63;;;16.00;99.90;;;;;;5072486;28;20210;-71
2023/07/03 09:13:40;;;;;;;6.17;3.10;;;15.90;99.90;;;;;;5071908;28;20568;-71
2023/07/03 09:16:25;;;;;;;13.37;3.73;;;15.90;99.90;;;;;;5071235;28;20518;-70
2023/07/03 09:19:03;;;;;;;13.27;3.57;;;15.90;99.90;;;;;;5071766;28;20218;-71
2023/07/03 09:21:33;;;;;;;11.43;4.10;;;15.90;99.90;;;;;;5071012;28;20208;-71
2023/07/03 09:24:06;;;;;;;10.83;4.13;;;15.90;99.90;;;;;;5057387;28;20175;-73
2023/07/03 09:26:55;;;;;;;14.80;3.67;;;15.90;99.90;;;;;;5071895;28;20180;-72
2023/07/03 09:29:26;;;;;;;16.70;4.27;;;15.80;99.90;;;;;;5071534;28;20535;-69
2023/07/03 09:31:55;;;;;;;9.13;3.10;;;15.80;99.90;;;;;;5071954;28;20186;-72
2023/07/03 09:34:22;;;;;;;6.10;2.87;;;15.90;99.90;;;;;;5071978;28;20181;-70
2023/07/03 09:37:03;;;;;;;9.07;3.87;;;15.80;99.90;;;;;;5071028;28;20646;-70
2023/07/03 09:39:32;;;;;;;10.87;4.23;;;15.90;99.90;;;;;;5073431;28;20641;-72
2023/07/03 09:42:07;;;;;;;12.70;4.10;;;15.90;99.90;;;;;;5073566;28;20626;-71
2023/07/03 09:44:42;;;;;;;10.90;3.30;;;15.80;99.90;;;;;;5072870;28;20237;-71
2023/07/03 09:47:26;;;;;;;8.00;3.10;;;15.90;99.90;;;;;;5053481;28;20563;-72
2023/07/03 09:49:54;;;;;;;13.43;3.73;;;15.90;99.90;;;;;;5053594;28;20185;-72
2023/07/03 09:52:23;;;;;;;7.83;4.10;;;15.80;99.90;;;;;;5053021;28;20527;-71
2023/07/03 09:54:50;;;;;;;10.23;4.43;;;15.80;99.90;;;;;;5070318;28;20626;-71
2023/07/03 09:57:26;;;;;;;11.30;4.57;;;15.80;99.90;;;;;;5079285;28;20694;-70
2023/07/03 10:00:11;;;;;;;10.17;4.17;;;16.00;99.90;;;;;;5072445;28;20185;-71
2023/07/03 10:02:39;;;;;;;9.80;3.77;;;15.90;99.90;;;;;;5072353;28;20180;-71
2023/07/03 10:05:06;;;;;;;12.27;4.53;;;15.90;99.90;;;;;;5072642;28;20694;-70
2023/07/03 10:07:41;;;;;;;12.37;4.47;;;15.90;99.90;;;;;;5073118;28;20531;-71
2023/07/03 10:10:12;;;;;;;16.00;4.40;;;15.90;99.90;;;;;;5072833;28;20734;-71
2023/07/03 10:12:59;;;;;;;14.43;3.77;;;15.90;99.90;;;;;;5073019;28;20175;-71
2023/07/03 10:15:34;;;;;;;14.70;4.03;;;15.80;99.90;;;;;;5072105;28;20173;-72
2023/07/03 10:18:17;;;;;;;15.30;4.07;;;15.80;99.90;;;;;;5072742;28;20550;-72
2023/07/03 10:20:47;;;;;;;9.60;3.70;;;15.80;99.90;;;;;;5072763;28;20255;-72
2023/07/03 10:23:29;;;;;;;7.17;3.87;;;15.80;99.90;;;;;;5072121;28;20183;-71
2023/07/03 10:26:04;;;;;;;12.03;4.17;;;15.70;99.90;;;;;;5072962;28;20276;-72
2023/07/03 10:28:56;;;;;;;10.57;3.67;;;15.80;99.90;;;;;;5072776;28;20186;-72
2023/07/03 10:31:55;;;;;;;10.57;3.60;;;15.70;99.90;;;;;;5072684;28;20180;-71
2023/07/03 10:34:52;;;;;;;11.47;4.40;;;15.60;99.90;;;;;;5069755;28;20722;-71
2023/07/03 10:37:21;;;;;;;16.30;4.37;;;15.60;99.90;;;;;;5043615;28;20259;-71
2023/07/03 10:40:09;;;;;;;10.90;3.83;;;15.50;99.90;;;;;;5071938;28;20172;-71
2023/07/03 10:42:51;;;;;;;8.83;3.00;;;15.50;99.90;;;;;;5072517;28;20187;-71
2023/07/03 10:45:18;;;;;;;11.27;4.10;;;15.50;99.90;;;;;;5052772;28;20172;-70
2023/07/03 10:47:53;;;;;;;14.07;4.40;;;15.50;99.90;;;;;;5052579;28;20180;-71
2023/07/03 10:50:30;;;;;;;11.80;3.90;;;15.40;99.90;;;;;;5054824;28;20188;-71
2023/07/03 10:53:01;;;;;;;10.07;3.43;;;15.50;99.90;;;;;;5065418;28;20529;-71
2023/07/03 10:56:11;;;;;;;13.97;3.13;;;15.40;99.90;;;;;;5072618;28;20180;-71
2023/07/03 10:59:06;;;;;;;7.63;3.80;;;15.50;99.90;;;;;;5064067;28;20242;-71
2023/07/03 11:01:41;;;;;;;9.67;4.20;;;15.50;99.90;;;;;;5072455;28;20653;-71
2023/07/03 11:04:50;;;;;;;9.50;4.37;;;15.50;99.90;;;;;;5069925;28;20175;-71
2023/07/03 11:07:27;;;;;;;9.97;3.87;;;15.50;99.90;;;;;;5049675;28;20172;-71
2023/07/03 11:10:08;;;;;;;9.97;3.20;;;15.50;99.90;;;;;;5046017;28;20256;-72
2023/07/03 11:12:41;;;;;;;10.73;3.47;;;15.50;99.90;;;;;;5061807;28;20188;-70
2023/07/03 11:15:27;;;;;;;7.10;3.33;;;15.50;99.90;;;;;;5072532;28;20233;-71
2023/07/03 11:18:18;;;;;;;6.77;3.60;;;15.50;99.90;;;;;;5052223;28;20287;-71
2023/07/03 11:21:08;;;;;;;9.13;3.70;;;15.40;99.90;;;;;;5052177;28;20248;-71
2023/07/03 11:23:49;;;;;;;8.73;3.70;;;15.40;99.90;;;;;;5062718;28;20176;-71
2023/07/03 11:26:30;;;;;;;11.90;3.23;;;15.40;99.90;;;;;;5072096;28;20180;-71
2023/07/03 11:28:58;;;;;;;10.00;3.63;;;15.40;99.90;;;;;;5071661;28;20187;-71
2023/07/03 11:31:27;;;;;;;9.53;3.60;;;15.40;99.90;;;;;;5071439;28;20234;-71
2023/07/03 11:33:55;;;;;;;8.20;3.70;;;15.40;99.90;;;;;;5065261;28;20203;-71
2023/07/03 11:36:41;;;;;;;8.97;2.83;;;15.40;99.90;;;;;;5071674;28;20176;-71
2023/07/03 11:39:21;;;;;;;4.27;2.60;;;15.40;99.90;;;;;;5071839;28;20179;-72
2023/07/03 11:41:56;;;;;;;7.20;2.90;;;15.40;99.90;;;;;;5056632;28;20197;-71
2023/07/03 11:44:31;;;;;;;7.17;2.87;;;15.40;99.90;;;;;;5071836;28;20645;-72
2023/07/03 11:47:06;;;;;;;7.40;2.30;;;15.40;99.90;;;;;;5071775;28;20179;-71
2023/07/03 11:49:37;;;;;;;8.83;2.57;;;15.30;99.90;;;;;;5072602;28;20174;-71
2023/07/03 11:52:11;;;;;;;3.73;2.40;;;15.20;99.90;;;;;;5075777;28;20663;-71
2023/07/03 11:54:39;;;;;;;7.53;2.63;;;15.10;99.90;;;;;;5075007;28;20194;-71
2023/07/03 11:57:34;;;;;;;8.87;2.93;;;15.10;99.90;;;;;;5074992;28;20258;-71
2023/07/03 12:00:18;;;;;;;9.97;3.43;;;15.00;99.90;;;;;;5074077;28;20326;-71
2023/07/03 12:02:55;;;;;;;8.10;3.60;;;15.00;99.90;;;;;;5074911;28;20262;-71
2023/07/03 12:05:44;;;;;;;6.47;3.40;;;14.90;99.90;;;;;;5075523;28;20222;-71
2023/07/03 12:08:38;;;;;;;6.13;3.10;;;14.80;99.90;;;;;;5075298;28;20637;-71
2023/07/03 12:11:07;;;;;;;10.27;3.40;;;14.70;99.90;;;;;;5070214;28;20191;-70
2023/07/03 12:13:40;;;;;;;9.80;3.70;;;14.60;99.90;;;;;;5073519;28;20191;-71
2023/07/03 12:16:13;;;;;;;7.70;3.73;;;14.60;99.90;;;;;;5075366;28;20560;-70
2023/07/03 12:18:40;;;;;;;7.57;4.20;;;14.60;99.90;;;;;;5074842;28;20349;-72
2023/07/03 12:21:08;;;;;;;9.53;3.40;;;14.50;99.90;;;;;;5074742;28;20645;-72
2023/07/03 12:23:37;;;;;;;9.77;3.77;;;14.50;99.90;;;;;;5075436;28;20186;-70
2023/07/03 12:26:08;;;;;;;11.73;4.93;;;14.50;99.90;;;;;;5075413;28;20187;-70
2023/07/03 12:28:35;;;;;;;11.83;5.00;;;14.50;99.90;;;;;;5075068;28;20708;-71
2023/07/03 12:31:22;;;;;;;6.13;4.10;;;14.50;99.90;;;;;;5075342;28;20183;-71
2023/07/03 12:33:58;;;;;;;8.37;3.90;;;14.50;99.90;;;;;;5075089;28;20187;-71
2023/07/03 12:36:30;;;;;;;7.57;4.07;;;14.50;99.90;;;;;;5075003;28;20655;-70
2023/07/03 12:38:59;;;;;;;8.67;4.13;;;14.50;99.90;;;;;;5075050;28;20300;-70
2023/07/03 12:41:33;;;;;;;13.13;5.33;;;14.50;99.90;;;;;;5070644;28;20642;-70
2023/07/03 12:44:02;;;;;;;8.97;4.60;;;14.50;99.90;;;;;;5055264;28;20176;-70
2023/07/03 12:46:34;;;;;;;10.20;4.77;;;14.50;99.90;;;;;;5073552;28;20192;-71
2023/07/03 12:49:07;;;;;;;9.17;4.13;;;14.50;99.90;;;;;;5075098;28;20650;-71
2023/07/03 12:51:53;;;;;;;10.03;4.80;;;14.50;99.90;;;;;;5055167;28;20204;-71
2023/07/03 12:54:22;;;;;;;15.23;4.37;;;14.40;99.90;;;;;;5055137;28;20645;-69
2023/07/03 12:56:53;;;;;;;9.30;4.80;;;14.40;99.90;;;;;;5054956;28;20168;-70
2023/07/03 12:59:23;;;;;;;12.67;5.63;;;14.40;99.90;;;;;;5059611;28;20184;-70
2023/07/03 13:01:53;;;;;;;8.77;4.80;;;14.40;99.90;;;;;;5074302;28;20637;-71
2023/07/03 13:04:34;;;;;;;12.43;5.53;;;14.40;99.90;;;;;;5074723;28;20647;-70
2023/07/03 13:07:04;;;;;;;8.23;4.60;;;14.40;99.90;;;;;;5074656;28;20168;-72
2023/07/03 13:09:32;;;;;;;8.27;4.90;;;14.40;99.90;;;;;;5074537;28;20557;-71
2023/07/03 13:12:00;;;;;;;15.63;7.03;;;14.30;99.90;;;;;;5074670;28;20218;-71
2023/07/03 13:14:29;;;;;;;10.83;5.73;;;14.30;99.90;;;;;;5074626;28;20222;-70